Hayward, WI

11:43 AM CDT on June 25, 2017 (GMT -0500)
Sawyer County | | Change Station

Elev 1214 ft 46.03 °N, 91.44 °W | Updated 29 minutes ago

Light Rain
Light Rain
56 °F
Feels Like 56 °F
N
0
Wind Variable Wind from North

Today
High -- | Low -- °F
--% Chance of Precip.
Yesterday
High -- | Low -- °F
Precip. -- in
Pressure 30.05 in
Visibility 8.0 miles
Clouds Few 1500 ft
Mostly Cloudy 7000 ft
Overcast 9500 ft
Dew Point 52 °F
Humidity 87%
Rainfall 0.04 in
Snow Depth Not available.
5:16 AM 9:00 PM
Waxing Crescent, 4% visible
SPECI KHYR 251614Z AUTO 00000KT 8SM -RA FEW015 BKN070 OVC095 13/11 A3005 RMK AO2 P0003 T01330111
Pressure 30.05 in
Visibility 8.0 miles
Clouds Few 1500 ft
Mostly Cloudy 7000 ft
Overcast 9500 ft
Dew Point 52 °F
Humidity 87%
Rainfall 0.04 in
Snow Depth Not available.
5:16 AM 9:00 PM
Waxing Crescent, 4% visible
SPECI KHYR 251614Z AUTO 00000KT 8SM -RA FEW015 BKN070 OVC095 13/11 A3005 RMK AO2 P0003 T01330111

Get Severe Weather Alerts

Thanks for signing up!

Be on the lookout for a verification email in your inbox.

You'll start receiving the daily forecast at 6 AM.

×

10-Day Weather Forecast

Almanac

Astronomy

Jun. 25, 2017 Rise Set
Actual Time
Civil Twilight
Nautical Twilight
Astronomical Twilight
Moon
Length of Visible Light
Length of Day
Tomorrow will be .
, % of the Moon is Illuminated

Today's Extremes

State Highs State Lows

Community

WunderPhotos

Category 6

Welcome to Category 6. This is the collective home for Weather Underground's featured writeups by Dr. Jeff Masters (right), Bob Henson (left), Chris Burt, and other regular contributors.

Nearby

Air Quality

  Air Quality AQ Index Pollutant
Not available.

Snow Depth

Station Depth Elevation

Earthquake Activity

City Distance Mag. Time & Date
Minimum magnitude displayed is 2.5.

Coastal Water Temperatures

Place Temperature

Stations

Nearby Weather Stations

Station Location Temp. Windchill Dew Point Humidity Wind Precip. Elev Updated Type
                   

Watches & Warnings

There are currently no watches in effect.